Cartagena de Indias, Colombia

6:38 AM COT en Diciembre 09, 2016 (GMT -0500)
Rafael Nunez | | Change Station

Alt 39 ft 10.45 °N, 75.52 °W | Updated 38 minutes ago

Parcialmente nublado
Parcialmente nublado
77 ° F
Sensación térmica 77 ° F
N
0
Viento Variable Viento desde Norte

Hoy
Alta -- | Baja -- ° F
--% Posibilidad de precipitaciones
Ayer
Alta -- | Baja -- ° F
Precip. -- pul
Presión 29.82 pul
Visibilidad 4.3 Millas
Nubes Baja 1300 ft
Nubes dispersas 20000 ft
Punto de rocío 77 ° F
Humedad 100%
Precipitaciones 0.00 pul
Espesor de la nieve No disponible.
6:08 AM 5:40 PM
Gibosa creciente, 73% visible
METAR SKCG 091100Z 00000KT 7000 FEW013 SCT200 25/25 A2982 RMK HZ
Presión 29.82 pul
Visibilidad 4.3 Millas
Nubes Baja 1300 ft
Nubes dispersas 20000 ft
Punto de rocío 77 ° F
Humedad 100%
Precipitaciones 0.00 pul
Espesor de la nieve No disponible.
6:08 AM 5:40 PM
Gibosa creciente, 73% visible
METAR SKCG 091100Z 00000KT 7000 FEW013 SCT200 25/25 A2982 RMK HZ

10-Day Weather Forecast

No radar image for this location.
×

Almanac

Astronomía

Dec. 09, 2016 Salida Puesta
Hora real
Crepúsculo civil
Crepúsculo náutico
Crepúsculo astronómico
Luna
Horas de luz
Horas de luz
Tomorrow will be .
, % of the Moon is Illuminated

Extremos de hoy

Máximos del país Bajas del país

Community

WunderPhotos

Upload Photos

1,956,378 ¡fotos cargadas!

WunderBlog® & News

Nearby

Calidad del aire

  Calidad del aire Índice AQ Contaminante
Not available.

Grosos de nieve

Estación Profundido Altura

Actividad de terremotos

Ciudad Distance Mag. Tiempo y dato
Magnitud mínima muestra es 2,5.

Temperaturas de aguas costeras

Lugar Temperatura

Stations

Estaciones meteorológicas cercanas

Ubicación de la estación Temp. Vientos helados Punto de rocío Humedad Viento Precip. Alt Actualizado Tipo